createdAt,value
2022-11-09T00:00:47.978Z,100458.09
2022-11-09T00:05:57.747Z,100459.00
2022-11-09T00:11:06.607Z,100466.88
2022-11-09T00:16:11.522Z,100469.50
2022-11-09T00:21:16.474Z,100470.41
2022-11-09T00:26:22.083Z,100471.19
2022-11-09T00:31:26.245Z,100465.00
2022-11-09T00:36:30.888Z,100462.34
2022-11-09T00:41:35.297Z,100456.19
2022-11-09T00:46:38.335Z,100446.34
2022-11-09T00:51:41.546Z,100456.00
2022-11-09T00:56:46.343Z,100455.00
2022-11-09T01:01:49.891Z,100448.84
2022-11-09T01:06:54.669Z,100459.25
2022-11-09T01:12:00.290Z,100456.44
2022-11-09T01:17:03.498Z,100465.09
2022-11-09T01:22:06.893Z,100472.97
2022-11-09T01:27:11.497Z,100464.03
2022-11-09T01:32:14.575Z,100467.44
2022-11-09T01:37:17.524Z,100471.72
2022-11-09T01:42:25.824Z,100475.16
2022-11-09T01:47:28.939Z,100483.00
2022-11-09T01:52:37.475Z,100489.03
2022-11-09T01:57:51.359Z,100465.31
2022-11-09T02:02:58.328Z,100449.59
2022-11-09T02:08:03.981Z,100446.25
2022-11-09T02:13:09.620Z,100455.97
2022-11-09T02:18:14.260Z,100486.69
2022-11-09T02:23:20.007Z,100487.56
2022-11-09T02:28:24.101Z,100499.06
2022-11-09T02:33:27.442Z,100504.47
2022-11-09T02:38:33.208Z,100479.97
2022-11-09T02:43:37.934Z,100482.69
2022-11-09T02:48:41.360Z,100480.13
2022-11-09T02:53:45.791Z,100485.41
2022-11-09T02:58:48.923Z,100491.50
2022-11-09T03:03:53.274Z,100496.56
2022-11-09T03:08:57.802Z,100494.69
2022-11-09T03:14:01.173Z,100504.16
2022-11-09T03:19:04.852Z,100515.38
2022-11-09T03:24:10.612Z,100524.06
2022-11-09T03:29:15.766Z,100525.56
2022-11-09T03:34:19.130Z,100534.25
2022-11-09T03:39:23.877Z,100549.06
2022-11-09T03:44:27.037Z,100548.16
2022-11-09T03:49:30.499Z,100556.78
2022-11-09T03:54:35.100Z,100558.34
2022-11-09T03:59:38.992Z,100565.34
2022-11-09T04:04:42.052Z,100576.72
2022-11-09T04:09:46.422Z,100581.13
2022-11-09T04:14:49.535Z,100578.31
2022-11-09T04:19:52.664Z,100577.41
2022-11-09T04:24:57.400Z,100582.59
2022-11-09T04:30:00.479Z,100586.06
2022-11-09T04:35:04.255Z,100586.13
2022-11-09T04:40:10.313Z,100589.53
2022-11-09T04:45:13.330Z,100592.16
2022-11-09T04:50:16.913Z,100589.31
2022-11-09T04:55:21.547Z,100590.94
2022-11-09T05:00:24.579Z,100595.22
2022-11-09T05:05:27.872Z,100596.84
2022-11-09T05:10:33.304Z,100598.59
2022-11-09T05:15:37.794Z,100599.41
2022-11-09T05:20:41.087Z,100592.50
2022-11-09T05:25:46.179Z,100594.56
2022-11-09T05:30:49.263Z,100583.81
2022-11-09T05:35:52.329Z,100585.41
2022-11-09T05:40:56.662Z,100587.78
2022-11-09T05:46:03.880Z,100577.25
2022-11-09T05:51:12.668Z,100574.59
2022-11-09T05:56:17.133Z,100584.13
2022-11-09T06:01:20.337Z,100586.59
2022-11-09T06:06:23.373Z,100590.03
2022-11-09T06:11:29.905Z,100600.47
2022-11-09T06:16:33.034Z,100604.06
2022-11-09T06:21:36.159Z,100613.00
2022-11-09T06:26:40.900Z,100616.69
2022-11-09T06:31:44.007Z,100613.19
2022-11-09T06:36:47.512Z,100610.53
2022-11-09T06:41:51.940Z,100623.50
2022-11-09T06:46:55.390Z,100616.41
2022-11-09T06:51:58.448Z,100628.56
2022-11-09T06:57:03.049Z,100627.75
2022-11-09T07:02:06.502Z,100631.41
2022-11-09T07:07:09.653Z,100634.22
2022-11-09T07:12:14.242Z,100628.94
2022-11-09T07:17:17.551Z,100637.56
2022-11-09T07:22:21.002Z,100638.47
2022-11-09T07:27:28.116Z,100634.09
2022-11-09T07:33:07.000Z,100633.19
2022-11-09T07:38:01.402Z,100638.56
2022-11-09T07:43:07.809Z,100637.00
2022-11-09T07:48:14.514Z,100648.88
2022-11-09T07:53:18.200Z,100655.84
2022-11-09T07:58:22.795Z,100661.16
2022-11-09T08:03:26.193Z,100663.06
2022-11-09T08:08:29.281Z,100665.91
2022-11-09T08:13:34.205Z,100673.19
2022-11-09T08:18:37.206Z,100684.03
2022-11-09T08:23:40.585Z,100679.31
2022-11-09T08:28:45.437Z,100692.13
2022-11-09T08:33:48.654Z,100696.78
2022-11-09T08:38:52.256Z,100708.41
2022-11-09T08:43:56.687Z,100712.22
2022-11-09T08:48:59.779Z,100717.75
2022-11-09T08:54:02.946Z,100720.69
2022-11-09T08:59:07.504Z,100716.63
2022-11-09T09:04:10.813Z,100721.31
2022-11-09T09:09:13.774Z,100720.78
2022-11-09T09:14:18.488Z,100716.88
2022-11-09T09:19:21.437Z,100719.13
2022-11-09T09:24:24.792Z,100721.75
2022-11-09T09:29:29.254Z,100723.56
2022-11-09T09:34:32.522Z,100726.22
2022-11-09T09:39:35.780Z,100722.34
2022-11-09T09:44:44.575Z,100733.28
2022-11-09T09:49:53.557Z,100734.09
2022-11-09T09:55:02.341Z,100751.84
2022-11-09T10:00:10.585Z,100759.97
2022-11-09T10:05:18.175Z,100766.16
2022-11-09T10:10:44.445Z,100778.28
2022-11-09T10:15:54.386Z,100779.06
2022-11-09T10:21:10.265Z,100785.97
2022-11-09T10:26:19.984Z,100776.22
2022-11-09T10:31:25.254Z,100775.00
2022-11-09T10:36:33.114Z,100783.16
2022-11-09T10:41:40.767Z,100784.53
2022-11-09T10:47:09.270Z,100783.69
2022-11-09T10:52:43.038Z,100777.47
2022-11-09T10:58:22.759Z,100781.81
2022-11-09T11:03:46.861Z,100772.22
2022-11-09T11:09:17.708Z,100773.13
2022-11-09T11:14:45.009Z,100783.88
2022-11-09T11:20:30.083Z,100782.91
2022-11-09T11:26:08.216Z,100792.41
2022-11-09T11:31:30.177Z,100795.75
2022-11-09T11:37:07.475Z,100791.28
2022-11-09T11:43:03.076Z,100781.50
2022-11-09T11:48:59.005Z,100769.50
2022-11-09T11:54:32.656Z,100788.81
2022-11-09T12:00:05.586Z,100784.41
2022-11-09T12:05:55.190Z,100790.28
2022-11-09T12:11:27.009Z,100799.25
2022-11-09T12:16:54.450Z,100784.84
2022-11-09T12:22:22.692Z,100789.91
2022-11-09T12:28:06.216Z,100791.59
2022-11-09T12:33:39.446Z,100793.50
2022-11-09T12:39:11.665Z,100814.94
2022-11-09T12:44:41.669Z,100798.06
2022-11-09T12:50:03.684Z,100801.66
2022-11-09T12:55:32.198Z,100802.72
2022-11-09T13:00:57.996Z,100812.47
2022-11-09T13:06:22.810Z,100814.25
2022-11-09T13:11:47.452Z,100824.91
2022-11-09T13:17:42.741Z,100830.34
2022-11-09T13:23:47.700Z,100832.28
2022-11-09T13:29:11.008Z,100845.34
2022-11-09T13:34:43.838Z,100838.13
2022-11-09T13:40:39.980Z,100845.75
2022-11-09T13:46:05.641Z,100865.41
2022-11-09T13:51:43.583Z,100862.75
2022-11-09T13:57:08.128Z,100851.09
2022-11-09T14:02:31.298Z,100865.94
2022-11-09T14:07:55.553Z,100872.81
2022-11-09T14:13:44.137Z,100890.16
2022-11-09T14:19:28.015Z,100904.16
2022-11-09T14:24:50.318Z,100902.47
2022-11-09T14:30:20.077Z,100902.16
2022-11-09T14:35:43.190Z,100915.34
2022-11-09T14:41:05.265Z,100918.59
2022-11-09T14:46:29.738Z,100937.00
2022-11-09T14:51:53.069Z,100949.09
2022-11-09T14:57:16.743Z,100949.69
2022-11-09T15:02:39.414Z,100948.66
2022-11-09T15:08:03.209Z,100963.38
2022-11-09T15:13:32.665Z,100969.41
2022-11-09T15:18:54.582Z,100964.13
2022-11-09T15:24:19.231Z,100974.59
2022-11-09T15:29:43.086Z,100970.81
2022-11-09T15:35:16.990Z,100987.38
2022-11-09T15:40:40.459Z,100988.06
2022-11-09T15:46:02.486Z,100973.47
2022-11-09T15:51:24.682Z,101001.25
2022-11-09T15:56:48.354Z,101016.09
2022-11-09T16:02:11.967Z,101014.25
2022-11-09T16:07:33.751Z,101027.28
2022-11-09T16:12:57.026Z,101042.06
2022-11-09T16:18:25.482Z,101038.31
2022-11-09T16:23:48.124Z,101051.47
2022-11-09T16:29:11.384Z,101065.31
2022-11-09T16:34:33.170Z,101081.75
2022-11-09T16:39:55.321Z,101094.22
2022-11-09T16:45:19.514Z,101105.63
2022-11-09T16:50:41.553Z,101110.75
2022-11-09T16:56:03.232Z,101127.31
2022-11-09T17:01:26.668Z,101129.16
2022-11-09T17:06:48.286Z,101145.69
2022-11-09T17:12:09.781Z,101145.28
2022-11-09T17:17:33.232Z,101156.22
2022-11-09T17:22:55.398Z,101174.53
2022-11-09T17:28:17.489Z,101172.63
2022-11-09T17:33:40.966Z,101180.91
2022-11-09T17:39:02.644Z,101192.31
2022-11-09T17:44:24.230Z,101204.00
2022-11-09T17:49:47.685Z,101222.09
2022-11-09T17:55:09.889Z,101227.66
2022-11-09T18:00:31.732Z,101224.81
2022-11-09T18:05:55.074Z,101244.94
2022-11-09T18:11:18.781Z,101253.41
2022-11-09T18:16:40.521Z,101259.19
2022-11-09T18:22:04.922Z,101269.41
2022-11-09T18:27:30.546Z,101270.03
2022-11-09T18:32:52.915Z,101283.78
2022-11-09T18:38:20.017Z,101279.97
2022-11-09T18:43:42.762Z,101280.53
2022-11-09T18:49:08.929Z,101287.28
2022-11-09T18:54:36.160Z,101300.16
2022-11-09T18:59:57.968Z,101303.47
2022-11-09T19:05:19.778Z,101319.13
2022-11-09T19:10:42.826Z,101317.16
2022-11-09T19:16:04.713Z,101326.75
2022-11-09T19:21:37.885Z,101330.97
2022-11-09T19:27:01.659Z,101334.50
2022-11-09T19:32:23.661Z,101353.72
2022-11-09T19:37:45.720Z,101361.19
2022-11-09T19:43:08.413Z,101376.63
2022-11-09T19:48:29.892Z,101386.88
2022-11-09T19:53:52.915Z,101400.94
2022-11-09T19:59:17.840Z,101410.06
2022-11-09T20:04:40.131Z,101413.91
2022-11-09T20:10:03.537Z,101425.06
2022-11-09T20:15:26.713Z,101428.28
2022-11-09T20:20:48.808Z,101441.16
2022-11-09T20:26:12.079Z,101450.22
2022-11-09T20:31:36.782Z,101454.59
2022-11-09T20:36:58.255Z,101465.69
2022-11-09T20:42:19.752Z,101480.22
2022-11-09T20:48:05.037Z,101485.25
2022-11-09T20:53:24.511Z,101484.00
2022-11-09T20:58:47.389Z,101485.59
2022-11-09T21:04:11.203Z,101493.16
2022-11-09T21:09:33.182Z,101493.81
2022-11-09T21:14:54.930Z,101499.69
2022-11-09T21:20:19.112Z,101509.16
2022-11-09T21:25:59.555Z,101515.13
2022-11-09T21:31:21.845Z,101522.88
2022-11-09T21:36:46.180Z,101518.16
2022-11-09T21:42:08.256Z,101525.22
2022-11-09T21:47:30.324Z,101524.09
2022-11-09T21:52:53.103Z,101531.84
2022-11-09T21:58:15.040Z,101541.25
2022-11-09T22:03:36.966Z,101554.25
2022-11-09T22:09:00.637Z,101562.06
2022-11-09T22:14:40.026Z,101575.06
2022-11-09T22:20:19.321Z,101579.25
2022-11-09T22:25:47.805Z,101596.69
2022-11-09T22:31:10.673Z,101593.91
2022-11-09T22:36:32.384Z,101584.97
2022-11-09T22:41:55.480Z,101585.66
2022-11-09T22:47:17.075Z,101596.81
2022-11-09T22:52:38.617Z,101602.81
2022-11-09T22:58:02.167Z,101607.16
2022-11-09T23:03:24.784Z,101611.34
2022-11-09T23:08:46.999Z,101618.25
2022-11-09T23:14:10.053Z,101639.97
2022-11-09T23:19:32.101Z,101635.47
2022-11-09T23:25:26.155Z,101653.91
2022-11-09T23:30:49.566Z,101653.69
2022-11-09T23:36:11.665Z,101660.53
2022-11-09T23:41:33.953Z,101664.66
2022-11-09T23:46:56.952Z,101682.28
2022-11-09T23:52:18.809Z,101685.78
2022-11-09T23:57:41.116Z,101694.28
